Погода Кушатана неделю

Южно-Казахстанская область, Казахстан

23 - 29 июля
  • 23июля
    Сегодня
    +23°
    +36°
    Небольшая облачность
    ВремяПогодаТемператураВлажностьДавлениеВетер, м/сВероятность осадков
    02:00Ясно и безоблачно+26°C31 %715 мм4.9 м/с2 %
    05:00Ясно и безоблачно+25°C32 %714 мм4.6 м/с2 %
    08:00Ясно и безоблачно+32°C23 %715 мм2.5 м/с2 %
    11:00Ясно и безоблачно+35°C17 %716 мм2.7 м/с2 %
    14:00Небольшая облачность+36°C14 %715 мм3.0 м/с2 %
    17:00Ясно и безоблачно+36°C12 %714 мм2.7 м/с2 %
    20:00Практически безоблачно+32°C19 %714 мм5.8 м/с2 %
    23:00Ясно и безоблачно+29°C22 %713 мм4.6 м/с2 %
  • 24июля
    Среда
    +27°
    +37°
    Ясно и безоблачно
    ВремяПогодаТемператураВлажностьДавлениеВетер, м/сВероятность осадков
    02:00Практически безоблачно+28°C25 %713 мм4.7 м/с2 %
    05:00Ясно и безоблачно+24°C34 %713 мм2.4 м/с2 %
    08:00Ясно и безоблачно+32°C22 %714 мм1.3 м/с2 %
    11:00Ясно и безоблачно+35°C15 %714 мм2.5 м/с2 %
    14:00Ясно и безоблачно+36°C14 %713 мм2.4 м/с2 %
    17:00Ясно и безоблачно+36°C14 %712 мм3.5 м/с2 %
    20:00Ясно и безоблачно+32°C19 %712 мм1.9 м/с2 %
    23:00Ясно и безоблачно+29°C22 %712 мм5.1 м/с2 %
  • 25июля
    Четверг
    +25°
    +39°
    Небольшая облачность
    ВремяПогодаТемператураВлажностьДавлениеВетер, м/сВероятность осадков
    02:00Ясно и безоблачно+29°C25 %711 мм5.3 м/с2 %
    05:00Ясно и безоблачно+27°C28 %711 мм5.0 м/с2 %
    08:00Ясно и безоблачно+33°C21 %712 мм4.0 м/с2 %
    11:00Ясно и безоблачно+37°C13 %713 мм0.9 м/с2 %
    14:00Небольшая облачность+38°C11 %712 мм2.6 м/с2 %
    17:00Ясно и безоблачно+38°C10 %712 мм4.5 м/с2 %
    20:00Ясно и безоблачно+34°C15 %712 мм3.7 м/с2 %
    23:00Ясно и безоблачно+28°C23 %712 мм1.8 м/с2 %
  • 26июля
    Пятница
    +23°
    +38°
    Ясно и безоблачно
    ВремяПогодаТемператураВлажностьДавлениеВетер, м/сВероятность осадков
    02:00Ясно и безоблачно+27°C23 %711 мм2.6 м/с2 %
    05:00Ясно и безоблачно+26°C22 %712 мм2.6 м/с2 %
    08:00Ясно и безоблачно+32°C18 %714 мм2.2 м/с2 %
    11:00Ясно и безоблачно+36°C12 %714 мм2.9 м/с2 %
    14:00Ясно и безоблачно+38°C9 %713 мм4.2 м/с3 %
    17:00Практически безоблачно+37°C10 %714 мм6.1 м/с2 %
    20:00Практически безоблачно+32°C21 %714 мм3.6 м/с2 %
    23:00Ясно и безоблачно+27°C28 %714 мм2.8 м/с2 %
  • 27июля
    Суббота
    +24°
    +37°
    Ясно и безоблачно
    ВремяПогодаТемператураВлажностьДавлениеВетер, м/сВероятность осадков
    02:00Ясно и безоблачно+27°C29 %714 мм4.6 м/с2 %
    05:00Ясно и безоблачно+24°C27 %715 мм3.3 м/с2 %
    08:00Ясно и безоблачно+30°C23 %717 мм0.9 м/с2 %
    11:00Ясно и безоблачно+34°C17 %717 мм1.3 м/с2 %
    14:00Ясно и безоблачно+36°C8 %716 мм2.1 м/с2 %
    17:00Ясно и безоблачно+37°C9 %716 мм3.3 м/с2 %
    20:00Ясно и безоблачно+32°C15 %716 мм2.1 м/с2 %
    23:00Ясно и безоблачно+28°C19 %716 мм4.7 м/с2 %
Мы используем cookies
Соглашаюсь